sensor_id;sensor_type;location;lat;lon;timestamp;temperature;humidity
8872;DHT22;4472;52.092;9.820;2023-04-10T00:01:30;4.90;99.90
8872;DHT22;4472;52.092;9.820;2023-04-10T00:04:20;4.90;99.90
8872;DHT22;4472;52.092;9.820;2023-04-10T00:07:08;5.00;99.90
8872;DHT22;4472;52.092;9.820;2023-04-10T00:09:57;5.00;99.90
8872;DHT22;4472;52.092;9.820;2023-04-10T00:12:44;5.00;99.90
8872;DHT22;4472;52.092;9.820;2023-04-10T00:15:31;5.00;99.90
8872;DHT22;4472;52.092;9.820;2023-04-10T00:21:05;5.00;99.90
8872;DHT22;4472;52.092;9.820;2023-04-10T00:23:53;4.90;99.90
8872;DHT22;4472;52.092;9.820;2023-04-10T00:26:41;4.80;99.90
8872;DHT22;4472;52.092;9.820;2023-04-10T00:29:28;4.80;99.90
8872;DHT22;4472;52.092;9.820;2023-04-10T00:32:15;4.60;99.90
8872;DHT22;4472;52.092;9.820;2023-04-10T00:35:03;4.60;99.90
8872;DHT22;4472;52.092;9.820;2023-04-10T00:37:50;4.50;99.90
8872;DHT22;4472;52.092;9.820;2023-04-10T00:40:39;4.40;99.90
8872;DHT22;4472;52.092;9.820;2023-04-10T00:43:27;4.40;99.90
8872;DHT22;4472;52.092;9.820;2023-04-10T00:46:15;4.40;99.90
8872;DHT22;4472;52.092;9.820;2023-04-10T00:49:02;4.30;99.90
8872;DHT22;4472;52.092;9.820;2023-04-10T00:54:37;4.20;99.90
8872;DHT22;4472;52.092;9.820;2023-04-10T00:57:24;4.10;99.90
8872;DHT22;4472;52.092;9.820;2023-04-10T01:00:15;4.10;99.90
8872;DHT22;4472;52.092;9.820;2023-04-10T01:03:03;4.10;99.90
8872;DHT22;4472;52.092;9.820;2023-04-10T01:05:56;4.10;99.90
8872;DHT22;4472;52.092;9.820;2023-04-10T01:08:54;4.10;99.90
8872;DHT22;4472;52.092;9.820;2023-04-10T01:11:52;4.10;99.90
8872;DHT22;4472;52.092;9.820;2023-04-10T01:14:45;4.00;99.90
8872;DHT22;4472;52.092;9.820;2023-04-10T01:17:42;4.00;99.90
8872;DHT22;4472;52.092;9.820;2023-04-10T01:20:32;4.00;99.90
8872;DHT22;4472;52.092;9.820;2023-04-10T01:23:40;4.10;99.90
8872;DHT22;4472;52.092;9.820;2023-04-10T01:26:38;4.10;99.90
8872;DHT22;4472;52.092;9.820;2023-04-10T01:29:31;4.10;99.90
8872;DHT22;4472;52.092;9.820;2023-04-10T01:32:21;4.10;99.90
8872;DHT22;4472;52.092;9.820;2023-04-10T01:35:09;4.10;99.90
8872;DHT22;4472;52.092;9.820;2023-04-10T01:38:00;4.10;99.90
8872;DHT22;4472;52.092;9.820;2023-04-10T01:40:50;4.20;99.90
8872;DHT22;4472;52.092;9.820;2023-04-10T01:43:39;4.20;99.90
8872;DHT22;4472;52.092;9.820;2023-04-10T01:46:29;4.30;99.90
8872;DHT22;4472;52.092;9.820;2023-04-10T01:49:17;4.30;99.90
8872;DHT22;4472;52.092;9.820;2023-04-10T01:52:05;4.40;99.90
8872;DHT22;4472;52.092;9.820;2023-04-10T01:54:53;4.20;99.90
8872;DHT22;4472;52.092;9.820;2023-04-10T01:57:40;4.40;99.90
8872;DHT22;4472;52.092;9.820;2023-04-10T02:00:28;4.40;99.90
8872;DHT22;4472;52.092;9.820;2023-04-10T02:03:16;4.50;99.90
8872;DHT22;4472;52.092;9.820;2023-04-10T02:06:11;4.60;99.90
8872;DHT22;4472;52.092;9.820;2023-04-10T02:09:14;4.70;99.90
8872;DHT22;4472;52.092;9.820;2023-04-10T02:12:04;4.90;99.90
8872;DHT22;4472;52.092;9.820;2023-04-10T02:14:55;5.00;99.90
8872;DHT22;4472;52.092;9.820;2023-04-10T02:17:43;5.10;99.90
8872;DHT22;4472;52.092;9.820;2023-04-10T02:20:32;5.20;99.90
8872;DHT22;4472;52.092;9.820;2023-04-10T02:23:20;5.30;99.90
8872;DHT22;4472;52.092;9.820;2023-04-10T02:26:08;5.20;99.90
8872;DHT22;4472;52.092;9.820;2023-04-10T02:28:55;5.50;99.90
8872;DHT22;4472;52.092;9.820;2023-04-10T02:31:43;5.60;99.90
8872;DHT22;4472;52.092;9.820;2023-04-10T02:34:30;5.60;99.90
8872;DHT22;4472;52.092;9.820;2023-04-10T02:37:19;5.70;99.90
8872;DHT22;4472;52.092;9.820;2023-04-10T02:40:07;5.70;99.90
8872;DHT22;4472;52.092;9.820;2023-04-10T02:42:54;5.70;99.90
8872;DHT22;4472;52.092;9.820;2023-04-10T02:45:41;5.70;99.90
8872;DHT22;4472;52.092;9.820;2023-04-10T02:48:28;5.80;99.90
8872;DHT22;4472;52.092;9.820;2023-04-10T02:51:15;5.70;99.90
8872;DHT22;4472;52.092;9.820;2023-04-10T02:54:04;5.60;99.90
8872;DHT22;4472;52.092;9.820;2023-04-10T02:56:51;5.50;99.90
8872;DHT22;4472;52.092;9.820;2023-04-10T02:59:38;5.40;99.90
8872;DHT22;4472;52.092;9.820;2023-04-10T03:02:25;5.40;99.90
8872;DHT22;4472;52.092;9.820;2023-04-10T03:05:12;5.50;99.90
8872;DHT22;4472;52.092;9.820;2023-04-10T03:07:59;5.40;99.90
8872;DHT22;4472;52.092;9.820;2023-04-10T03:10:48;5.40;99.90
8872;DHT22;4472;52.092;9.820;2023-04-10T03:13:35;5.30;99.90
8872;DHT22;4472;52.092;9.820;2023-04-10T03:16:23;5.30;99.90
8872;DHT22;4472;52.092;9.820;2023-04-10T03:19:10;5.30;99.90
8872;DHT22;4472;52.092;9.820;2023-04-10T03:21:57;5.30;99.90
8872;DHT22;4472;52.092;9.820;2023-04-10T03:24:44;5.30;99.90
8872;DHT22;4472;52.092;9.820;2023-04-10T03:27:33;5.30;99.90
8872;DHT22;4472;52.092;9.820;2023-04-10T03:30:20;5.30;99.90
8872;DHT22;4472;52.092;9.820;2023-04-10T03:33:07;5.30;99.90
8872;DHT22;4472;52.092;9.820;2023-04-10T03:35:54;5.30;99.90
8872;DHT22;4472;52.092;9.820;2023-04-10T03:38:42;5.30;99.90
8872;DHT22;4472;52.092;9.820;2023-04-10T03:41:29;5.30;99.90
8872;DHT22;4472;52.092;9.820;2023-04-10T03:44:18;5.20;99.90
8872;DHT22;4472;52.092;9.820;2023-04-10T03:47:05;5.20;99.90
8872;DHT22;4472;52.092;9.820;2023-04-10T03:49:52;5.10;99.90
8872;DHT22;4472;52.092;9.820;2023-04-10T03:52:39;5.00;99.90
8872;DHT22;4472;52.092;9.820;2023-04-10T03:55:26;5.00;99.90
8872;DHT22;4472;52.092;9.820;2023-04-10T03:58:13;6.40;99.90
8872;DHT22;4472;52.092;9.820;2023-04-10T04:01:03;5.20;99.90
8872;DHT22;4472;52.092;9.820;2023-04-10T04:03:50;5.40;99.90
8872;DHT22;4472;52.092;9.820;2023-04-10T04:06:38;5.50;99.90
8872;DHT22;4472;52.092;9.820;2023-04-10T04:09:25;5.50;99.90
8872;DHT22;4472;52.092;9.820;2023-04-10T04:12:12;5.50;99.90
8872;DHT22;4472;52.092;9.820;2023-04-10T04:14:59;5.50;99.90
8872;DHT22;4472;52.092;9.820;2023-04-10T04:17:48;5.50;99.90
8872;DHT22;4472;52.092;9.820;2023-04-10T04:20:35;5.60;99.90
8872;DHT22;4472;52.092;9.820;2023-04-10T04:23:22;5.60;99.90
8872;DHT22;4472;52.092;9.820;2023-04-10T04:26:09;5.80;99.90
8872;DHT22;4472;52.092;9.820;2023-04-10T04:28:56;5.80;99.90
8872;DHT22;4472;52.092;9.820;2023-04-10T04:31:43;5.80;99.90
8872;DHT22;4472;52.092;9.820;2023-04-10T04:34:32;5.70;99.90
8872;DHT22;4472;52.092;9.820;2023-04-10T04:37:19;5.90;99.90
8872;DHT22;4472;52.092;9.820;2023-04-10T04:40:07;6.10;99.90
8872;DHT22;4472;52.092;9.820;2023-04-10T04:42:54;6.20;99.90
8872;DHT22;4472;52.092;9.820;2023-04-10T04:45:41;6.20;99.90
8872;DHT22;4472;52.092;9.820;2023-04-10T04:48:28;6.20;99.90
8872;DHT22;4472;52.092;9.820;2023-04-10T04:51:16;6.10;99.90
8872;DHT22;4472;52.092;9.820;2023-04-10T04:54:04;6.10;99.90
8872;DHT22;4472;52.092;9.820;2023-04-10T04:56:51;6.20;99.90
8872;DHT22;4472;52.092;9.820;2023-04-10T04:59:38;6.30;99.90
8872;DHT22;4472;52.092;9.820;2023-04-10T05:02:25;6.40;99.90
8872;DHT22;4472;52.092;9.820;2023-04-10T05:05:12;6.50;99.90
8872;DHT22;4472;52.092;9.820;2023-04-10T05:08:00;6.60;99.90
8872;DHT22;4472;52.092;9.820;2023-04-10T05:10:48;6.80;99.90
8872;DHT22;4472;52.092;9.820;2023-04-10T05:13:35;6.90;99.90
8872;DHT22;4472;52.092;9.820;2023-04-10T05:16:22;6.90;99.90
8872;DHT22;4472;52.092;9.820;2023-04-10T05:19:09;7.00;99.90
8872;DHT22;4472;52.092;9.820;2023-04-10T05:21:56;7.00;99.90
8872;DHT22;4472;52.092;9.820;2023-04-10T05:24:44;7.10;99.90
8872;DHT22;4472;52.092;9.820;2023-04-10T05:27:32;7.10;99.90
8872;DHT22;4472;52.092;9.820;2023-04-10T05:30:19;7.00;99.90
8872;DHT22;4472;52.092;9.820;2023-04-10T05:33:06;7.20;99.90
8872;DHT22;4472;52.092;9.820;2023-04-10T05:35:53;7.30;99.90
8872;DHT22;4472;52.092;9.820;2023-04-10T05:38:41;7.40;99.90
8872;DHT22;4472;52.092;9.820;2023-04-10T05:41:29;7.50;99.90
8872;DHT22;4472;52.092;9.820;2023-04-10T05:44:16;7.60;99.90
8872;DHT22;4472;52.092;9.820;2023-04-10T05:47:04;7.70;99.90
8872;DHT22;4472;52.092;9.820;2023-04-10T05:49:51;7.80;99.90
8872;DHT22;4472;52.092;9.820;2023-04-10T05:52:38;8.00;99.90
8872;DHT22;4472;52.092;9.820;2023-04-10T05:55:25;8.00;99.90
8872;DHT22;4472;52.092;9.820;2023-04-10T05:58:14;8.10;99.90
8872;DHT22;4472;52.092;9.820;2023-04-10T06:01:01;8.10;99.90
8872;DHT22;4472;52.092;9.820;2023-04-10T06:03:48;8.10;99.90
8872;DHT22;4472;52.092;9.820;2023-04-10T06:06:35;8.20;99.90
8872;DHT22;4472;52.092;9.820;2023-04-10T06:09:22;8.30;99.90
8872;DHT22;4472;52.092;9.820;2023-04-10T06:12:09;8.30;99.90
8872;DHT22;4472;52.092;9.820;2023-04-10T06:14:58;8.30;99.90
8872;DHT22;4472;52.092;9.820;2023-04-10T06:17:45;8.40;99.90
8872;DHT22;4472;52.092;9.820;2023-04-10T06:20:32;8.40;99.90
8872;DHT22;4472;52.092;9.820;2023-04-10T06:23:19;8.50;99.90
8872;DHT22;4472;52.092;9.820;2023-04-10T06:26:06;8.60;99.90
8872;DHT22;4472;52.092;9.820;2023-04-10T06:28:53;8.70;99.90
8872;DHT22;4472;52.092;9.820;2023-04-10T06:31:44;8.70;99.90
8872;DHT22;4472;52.092;9.820;2023-04-10T06:34:31;8.90;99.90
8872;DHT22;4472;52.092;9.820;2023-04-10T06:37:19;9.00;99.90
8872;DHT22;4472;52.092;9.820;2023-04-10T06:40:07;9.10;99.90
8872;DHT22;4472;52.092;9.820;2023-04-10T06:42:54;9.20;99.90
8872;DHT22;4472;52.092;9.820;2023-04-10T06:45:41;9.20;99.90
8872;DHT22;4472;52.092;9.820;2023-04-10T06:48:30;9.20;99.90
8872;DHT22;4472;52.092;9.820;2023-04-10T06:51:17;9.30;99.90
8872;DHT22;4472;52.092;9.820;2023-04-10T06:54:04;9.40;99.90
8872;DHT22;4472;52.092;9.820;2023-04-10T06:56:51;9.50;99.90
8872;DHT22;4472;52.092;9.820;2023-04-10T06:59:43;9.70;99.90
8872;DHT22;4472;52.092;9.820;2023-04-10T07:02:31;9.80;99.90
8872;DHT22;4472;52.092;9.820;2023-04-10T07:05:19;9.90;99.90
8872;DHT22;4472;52.092;9.820;2023-04-10T07:08:07;10.10;99.90
8872;DHT22;4472;52.092;9.820;2023-04-10T07:10:54;10.20;99.90
8872;DHT22;4472;52.092;9.820;2023-04-10T07:13:41;10.30;99.90
8872;DHT22;4472;52.092;9.820;2023-04-10T07:16:28;10.10;99.90
8872;DHT22;4472;52.092;9.820;2023-04-10T07:19:15;10.60;99.90
8872;DHT22;4472;52.092;9.820;2023-04-10T07:22:04;10.70;99.90
8872;DHT22;4472;52.092;9.820;2023-04-10T07:24:51;10.90;99.90
8872;DHT22;4472;52.092;9.820;2023-04-10T07:27:38;11.00;99.90
8872;DHT22;4472;52.092;9.820;2023-04-10T07:30:25;11.10;99.90
8872;DHT22;4472;52.092;9.820;2023-04-10T07:33:12;11.10;99.90
8872;DHT22;4472;52.092;9.820;2023-04-10T07:35:59;11.20;99.90
8872;DHT22;4472;52.092;9.820;2023-04-10T07:38:49;11.30;99.90
8872;DHT22;4472;52.092;9.820;2023-04-10T07:41:36;11.40;99.60
8872;DHT22;4472;52.092;9.820;2023-04-10T07:44:25;11.40;99.00
8872;DHT22;4472;52.092;9.820;2023-04-10T07:47:13;11.60;99.00
8872;DHT22;4472;52.092;9.820;2023-04-10T07:50:00;11.70;99.30
8872;DHT22;4472;52.092;9.820;2023-04-10T07:52:48;11.80;99.90
8872;DHT22;4472;52.092;9.820;2023-04-10T07:55:40;11.90;98.60
8872;DHT22;4472;52.092;9.820;2023-04-10T07:58:27;12.10;99.00
8872;DHT22;4472;52.092;9.820;2023-04-10T08:01:14;12.30;99.00
8872;DHT22;4472;52.092;9.820;2023-04-10T08:04:02;12.60;99.90
8872;DHT22;4472;52.092;9.820;2023-04-10T08:06:49;12.40;98.90
8872;DHT22;4472;52.092;9.820;2023-04-10T08:09:36;12.50;98.30
8872;DHT22;4472;52.092;9.820;2023-04-10T08:12:24;12.60;98.30
8872;DHT22;4472;52.092;9.820;2023-04-10T08:15:11;12.70;98.10
8872;DHT22;4472;52.092;9.820;2023-04-10T08:17:59;12.80;98.40
8872;DHT22;4472;52.092;9.820;2023-04-10T08:20:46;13.00;99.20
8872;DHT22;4472;52.092;9.820;2023-04-10T08:23:33;13.10;99.80
8872;DHT22;4472;52.092;9.820;2023-04-10T08:26:20;13.20;97.80
8872;DHT22;4472;52.092;9.820;2023-04-10T08:29:09;13.30;97.50
8872;DHT22;4472;52.092;9.820;2023-04-10T08:31:56;13.40;96.40
8872;DHT22;4472;52.092;9.820;2023-04-10T08:34:45;13.50;96.40
8872;DHT22;4472;52.092;9.820;2023-04-10T08:37:32;13.70;98.70
8872;DHT22;4472;52.092;9.820;2023-04-10T08:40:20;13.80;97.30
8872;DHT22;4472;52.092;9.820;2023-04-10T08:43:07;14.10;98.50
8872;DHT22;4472;52.092;9.820;2023-04-10T08:45:55;13.90;96.20
8872;DHT22;4472;52.092;9.820;2023-04-10T08:48:46;14.10;97.80
8872;DHT22;4472;52.092;9.820;2023-04-10T08:51:36;14.30;98.60
8872;DHT22;4472;52.092;9.820;2023-04-10T08:54:26;14.40;97.50
8872;DHT22;4472;52.092;9.820;2023-04-10T08:57:14;14.50;97.30
8872;DHT22;4472;52.092;9.820;2023-04-10T09:00:04;14.50;95.30
8872;DHT22;4472;52.092;9.820;2023-04-10T09:02:54;14.60;97.80
8872;DHT22;4472;52.092;9.820;2023-04-10T09:05:42;14.50;94.70
8872;DHT22;4472;52.092;9.820;2023-04-10T09:08:30;14.70;98.00
8872;DHT22;4472;52.092;9.820;2023-04-10T09:11:17;14.80;99.20
8872;DHT22;4472;52.092;9.820;2023-04-10T09:14:19;14.70;96.10
8872;DHT22;4472;52.092;9.820;2023-04-10T09:17:15;14.80;93.90
8872;DHT22;4472;52.092;9.820;2023-04-10T09:20:19;14.80;96.30
8872;DHT22;4472;52.092;9.820;2023-04-10T09:23:19;14.80;92.20
8872;DHT22;4472;52.092;9.820;2023-04-10T09:26:24;14.90;93.40
8872;DHT22;4472;52.092;9.820;2023-04-10T09:29:11;15.00;93.20
8872;DHT22;4472;52.092;9.820;2023-04-10T09:31:58;15.00;92.60
8872;DHT22;4472;52.092;9.820;2023-04-10T09:34:53;14.80;92.40
8872;DHT22;4472;52.092;9.820;2023-04-10T09:37:44;15.20;93.20
8872;DHT22;4472;52.092;9.820;2023-04-10T09:40:31;15.50;95.20
8872;DHT22;4472;52.092;9.820;2023-04-10T09:43:20;15.30;90.80
8872;DHT22;4472;52.092;9.820;2023-04-10T09:46:07;15.30;91.10
8872;DHT22;4472;52.092;9.820;2023-04-10T09:48:54;15.50;92.70
8872;DHT22;4472;52.092;9.820;2023-04-10T09:51:42;15.50;95.30
8872;DHT22;4472;52.092;9.820;2023-04-10T09:54:37;15.50;94.90
8872;DHT22;4472;52.092;9.820;2023-04-10T09:57:27;15.40;91.70
8872;DHT22;4472;52.092;9.820;2023-04-10T10:00:15;15.40;91.40
8872;DHT22;4472;52.092;9.820;2023-04-10T10:03:07;15.50;91.10
8872;DHT22;4472;52.092;9.820;2023-04-10T10:05:54;15.50;91.00
8872;DHT22;4472;52.092;9.820;2023-04-10T10:08:41;15.60;91.20
8872;DHT22;4472;52.092;9.820;2023-04-10T10:11:33;15.70;91.40
8872;DHT22;4472;52.092;9.820;2023-04-10T10:14:21;15.70;90.70
8872;DHT22;4472;52.092;9.820;2023-04-10T10:17:10;15.80;90.50
8872;DHT22;4472;52.092;9.820;2023-04-10T10:20:01;15.90;90.70
8872;DHT22;4472;52.092;9.820;2023-04-10T10:22:50;15.90;90.20
8872;DHT22;4472;52.092;9.820;2023-04-10T10:25:39;15.90;90.40
8872;DHT22;4472;52.092;9.820;2023-04-10T10:28:30;15.90;90.10
8872;DHT22;4472;52.092;9.820;2023-04-10T10:31:20;16.00;90.00
8872;DHT22;4472;52.092;9.820;2023-04-10T10:34:08;16.00;90.40
8872;DHT22;4472;52.092;9.820;2023-04-10T10:36:57;16.00;89.80
8872;DHT22;4472;52.092;9.820;2023-04-10T10:39:52;16.20;90.90
8872;DHT22;4472;52.092;9.820;2023-04-10T10:42:45;16.20;90.80
8872;DHT22;4472;52.092;9.820;2023-04-10T10:45:41;16.30;90.10
8872;DHT22;4472;52.092;9.820;2023-04-10T10:48:32;16.20;89.80
8872;DHT22;4472;52.092;9.820;2023-04-10T10:51:19;16.20;91.10
8872;DHT22;4472;52.092;9.820;2023-04-10T10:54:26;16.30;94.60
8872;DHT22;4472;52.092;9.820;2023-04-10T10:57:45;16.30;94.30
8872;DHT22;4472;52.092;9.820;2023-04-10T11:01:06;16.30;92.60
8872;DHT22;4472;52.092;9.820;2023-04-10T11:03:53;16.40;91.60
8872;DHT22;4472;52.092;9.820;2023-04-10T11:06:49;16.60;96.30
8872;DHT22;4472;52.092;9.820;2023-04-10T11:09:44;16.80;95.50
8872;DHT22;4472;52.092;9.820;2023-04-10T11:15:59;16.70;89.20
8872;DHT22;4472;52.092;9.820;2023-04-10T11:19:05;16.80;88.40
8872;DHT22;4472;52.092;9.820;2023-04-10T11:22:04;16.80;90.10
8872;DHT22;4472;52.092;9.820;2023-04-10T11:24:57;16.80;90.40
8872;DHT22;4472;52.092;9.820;2023-04-10T11:27:46;17.00;93.20
8872;DHT22;4472;52.092;9.820;2023-04-10T11:30:37;16.80;87.20
8872;DHT22;4472;52.092;9.820;2023-04-10T11:33:25;16.90;87.50
8872;DHT22;4472;52.092;9.820;2023-04-10T11:36:15;16.90;94.30
8872;DHT22;4472;52.092;9.820;2023-04-10T11:39:05;17.00;91.30
8872;DHT22;4472;52.092;9.820;2023-04-10T11:41:54;17.30;87.30
8872;DHT22;4472;52.092;9.820;2023-04-10T11:44:42;17.00;88.50
8872;DHT22;4472;52.092;9.820;2023-04-10T11:47:29;17.10;86.10
8872;DHT22;4472;52.092;9.820;2023-04-10T11:50:16;17.70;87.40
8872;DHT22;4472;52.092;9.820;2023-04-10T11:53:17;17.00;87.00
8872;DHT22;4472;52.092;9.820;2023-04-10T11:56:14;17.20;89.80
8872;DHT22;4472;52.092;9.820;2023-04-10T11:59:02;17.10;90.80
8872;DHT22;4472;52.092;9.820;2023-04-10T12:01:53;17.10;97.10
8872;DHT22;4472;52.092;9.820;2023-04-10T12:04:41;17.30;92.40
8872;DHT22;4472;52.092;9.820;2023-04-10T12:07:28;17.40;92.60
8872;DHT22;4472;52.092;9.820;2023-04-10T12:10:18;17.20;90.60
8872;DHT22;4472;52.092;9.820;2023-04-10T12:13:06;17.40;89.30
8872;DHT22;4472;52.092;9.820;2023-04-10T12:15:53;17.30;88.80
8872;DHT22;4472;52.092;9.820;2023-04-10T12:18:43;17.30;89.10
8872;DHT22;4472;52.092;9.820;2023-04-10T12:21:34;17.30;90.10
8872;DHT22;4472;52.092;9.820;2023-04-10T12:24:41;17.30;91.30
8872;DHT22;4472;52.092;9.820;2023-04-10T12:33:05;17.40;92.90
8872;DHT22;4472;52.092;9.820;2023-04-10T12:35:52;17.50;90.10
8872;DHT22;4472;52.092;9.820;2023-04-10T12:38:41;17.70;90.90
8872;DHT22;4472;52.092;9.820;2023-04-10T12:41:31;17.60;89.60
8872;DHT22;4472;52.092;9.820;2023-04-10T12:44:19;17.70;90.20
8872;DHT22;4472;52.092;9.820;2023-04-10T12:47:06;18.00;89.00
8872;DHT22;4472;52.092;9.820;2023-04-10T12:50:04;17.90;87.40
8872;DHT22;4472;52.092;9.820;2023-04-10T12:53:01;17.70;89.50
8872;DHT22;4472;52.092;9.820;2023-04-10T12:55:59;18.00;88.10
8872;DHT22;4472;52.092;9.820;2023-04-10T12:58:47;17.80;81.50
8872;DHT22;4472;52.092;9.820;2023-04-10T13:01:36;17.80;85.10
8872;DHT22;4472;52.092;9.820;2023-04-10T13:04:23;18.00;83.40
8872;DHT22;4472;52.092;9.820;2023-04-10T13:07:10;18.00;83.60
8872;DHT22;4472;52.092;9.820;2023-04-10T13:09:58;18.10;84.90
8872;DHT22;4472;52.092;9.820;2023-04-10T13:12:46;18.20;83.40
8872;DHT22;4472;52.092;9.820;2023-04-10T13:15:33;18.30;88.70
8872;DHT22;4472;52.092;9.820;2023-04-10T13:18:21;18.30;91.10
8872;DHT22;4472;52.092;9.820;2023-04-10T13:21:09;18.30;81.90
8872;DHT22;4472;52.092;9.820;2023-04-10T13:23:56;18.50;83.70
8872;DHT22;4472;52.092;9.820;2023-04-10T13:26:43;18.60;85.40
8872;DHT22;4472;52.092;9.820;2023-04-10T13:29:30;18.60;84.00
8872;DHT22;4472;52.092;9.820;2023-04-10T13:32:17;18.70;83.70
8872;DHT22;4472;52.092;9.820;2023-04-10T13:35:07;18.70;83.00
8872;DHT22;4472;52.092;9.820;2023-04-10T13:37:54;18.70;83.20
8872;DHT22;4472;52.092;9.820;2023-04-10T13:40:41;18.90;83.10
8872;DHT22;4472;52.092;9.820;2023-04-10T13:43:28;18.70;81.30
8872;DHT22;4472;52.092;9.820;2023-04-10T13:46:15;18.60;78.80
8872;DHT22;4472;52.092;9.820;2023-04-10T13:49:02;18.70;79.20
8872;DHT22;4472;52.092;9.820;2023-04-10T13:51:51;18.70;79.50
8872;DHT22;4472;52.092;9.820;2023-04-10T13:54:38;18.50;77.50
8872;DHT22;4472;52.092;9.820;2023-04-10T13:57:25;18.50;78.40
8872;DHT22;4472;52.092;9.820;2023-04-10T14:00:13;18.60;81.40
8872;DHT22;4472;52.092;9.820;2023-04-10T14:03:00;18.60;80.40
8872;DHT22;4472;52.092;9.820;2023-04-10T14:05:47;18.90;81.60
8872;DHT22;4472;52.092;9.820;2023-04-10T14:08:37;19.00;80.60
8872;DHT22;4472;52.092;9.820;2023-04-10T14:11:24;18.90;77.60
8872;DHT22;4472;52.092;9.820;2023-04-10T14:14:11;19.70;75.60
8872;DHT22;4472;52.092;9.820;2023-04-10T14:16:58;18.60;76.30
8872;DHT22;4472;52.092;9.820;2023-04-10T14:19:45;18.30;76.70
8872;DHT22;4472;52.092;9.820;2023-04-10T14:22:36;18.40;76.70
8872;DHT22;4472;52.092;9.820;2023-04-10T14:25:24;18.30;78.30
8872;DHT22;4472;52.092;9.820;2023-04-10T14:28:11;18.30;76.40
8872;DHT22;4472;52.092;9.820;2023-04-10T14:31:03;18.30;76.50
8872;DHT22;4472;52.092;9.820;2023-04-10T14:33:51;18.40;77.50
8872;DHT22;4472;52.092;9.820;2023-04-10T14:36:38;18.40;77.60
8872;DHT22;4472;52.092;9.820;2023-04-10T14:39:25;18.40;77.30
8872;DHT22;4472;52.092;9.820;2023-04-10T14:42:14;18.40;77.70
8872;DHT22;4472;52.092;9.820;2023-04-10T14:45:01;18.10;78.70
8872;DHT22;4472;52.092;9.820;2023-04-10T14:47:50;18.00;78.00
8872;DHT22;4472;52.092;9.820;2023-04-10T14:50:37;18.10;78.80
8872;DHT22;4472;52.092;9.820;2023-04-10T14:53:24;18.00;77.10
8872;DHT22;4472;52.092;9.820;2023-04-10T14:56:12;17.90;78.40
8872;DHT22;4472;52.092;9.820;2023-04-10T14:59:01;17.90;78.90
8872;DHT22;4472;52.092;9.820;2023-04-10T15:01:48;18.00;80.20
8872;DHT22;4472;52.092;9.820;2023-04-10T15:04:35;18.10;80.60
8872;DHT22;4472;52.092;9.820;2023-04-10T15:07:22;18.20;78.70
8872;DHT22;4472;52.092;9.820;2023-04-10T15:10:10;18.00;77.10
8872;DHT22;4472;52.092;9.820;2023-04-10T15:12:57;17.90;77.20
8872;DHT22;4472;52.092;9.820;2023-04-10T15:15:45;17.80;77.40
8872;DHT22;4472;52.092;9.820;2023-04-10T15:18:33;17.80;82.60
8872;DHT22;4472;52.092;9.820;2023-04-10T15:21:20;18.00;80.10
8872;DHT22;4472;52.092;9.820;2023-04-10T15:24:07;17.90;78.80
8872;DHT22;4472;52.092;9.820;2023-04-10T15:26:54;17.80;78.30
8872;DHT22;4472;52.092;9.820;2023-04-10T15:29:42;17.80;77.80
8872;DHT22;4472;52.092;9.820;2023-04-10T15:32:30;17.90;76.60
8872;DHT22;4472;52.092;9.820;2023-04-10T15:35:18;17.60;77.10
8872;DHT22;4472;52.092;9.820;2023-04-10T15:38:05;17.50;76.10
8872;DHT22;4472;52.092;9.820;2023-04-10T15:40:53;17.40;72.40
8872;DHT22;4472;52.092;9.820;2023-04-10T15:43:40;17.40;73.00
8872;DHT22;4472;52.092;9.820;2023-04-10T15:46:28;17.30;72.90
8872;DHT22;4472;52.092;9.820;2023-04-10T15:49:18;17.30;73.70
8872;DHT22;4472;52.092;9.820;2023-04-10T15:52:06;17.20;73.10
8872;DHT22;4472;52.092;9.820;2023-04-10T15:54:53;17.10;72.30
8872;DHT22;4472;52.092;9.820;2023-04-10T15:57:40;17.00;74.00
8872;DHT22;4472;52.092;9.820;2023-04-10T16:00:27;16.90;73.90
8872;DHT22;4472;52.092;9.820;2023-04-10T16:03:14;16.80;74.80
8872;DHT22;4472;52.092;9.820;2023-04-10T16:08:51;16.50;73.20
8872;DHT22;4472;52.092;9.820;2023-04-10T16:11:38;16.40;73.80
8872;DHT22;4472;52.092;9.820;2023-04-10T16:14:26;16.40;75.00
8872;DHT22;4472;52.092;9.820;2023-04-10T16:17:13;16.30;75.50
8872;DHT22;4472;52.092;9.820;2023-04-10T16:20:04;16.20;75.00
8872;DHT22;4472;52.092;9.820;2023-04-10T16:22:52;16.20;76.10
8872;DHT22;4472;52.092;9.820;2023-04-10T16:25:39;16.20;76.90
8872;DHT22;4472;52.092;9.820;2023-04-10T16:28:26;16.20;76.60
8872;DHT22;4472;52.092;9.820;2023-04-10T16:31:14;16.20;75.90
8872;DHT22;4472;52.092;9.820;2023-04-10T16:34:01;16.10;76.30
8872;DHT22;4472;52.092;9.820;2023-04-10T16:36:48;16.10;76.40
8872;DHT22;4472;52.092;9.820;2023-04-10T16:39:36;16.10;76.40
8872;DHT22;4472;52.092;9.820;2023-04-10T16:42:24;16.00;76.90
8872;DHT22;4472;52.092;9.820;2023-04-10T16:45:11;16.00;76.80
8872;DHT22;4472;52.092;9.820;2023-04-10T16:47:58;16.00;77.30
8872;DHT22;4472;52.092;9.820;2023-04-10T16:50:45;16.00;77.50
8872;DHT22;4472;52.092;9.820;2023-04-10T16:53:33;16.10;78.10
8872;DHT22;4472;52.092;9.820;2023-04-10T16:56:22;16.00;76.90
8872;DHT22;4472;52.092;9.820;2023-04-10T16:59:09;15.90;76.10
8872;DHT22;4472;52.092;9.820;2023-04-10T17:01:57;15.90;76.70
8872;DHT22;4472;52.092;9.820;2023-04-10T17:04:44;15.90;76.40
8872;DHT22;4472;52.092;9.820;2023-04-10T17:07:31;15.90;76.30
8872;DHT22;4472;52.092;9.820;2023-04-10T17:10:19;15.80;77.10
8872;DHT22;4472;52.092;9.820;2023-04-10T17:13:08;15.80;77.00
8872;DHT22;4472;52.092;9.820;2023-04-10T17:15:55;15.80;76.90
8872;DHT22;4472;52.092;9.820;2023-04-10T17:18:43;15.70;77.00
8872;DHT22;4472;52.092;9.820;2023-04-10T17:21:30;15.70;77.70
8872;DHT22;4472;52.092;9.820;2023-04-10T17:24:17;15.60;77.30
8872;DHT22;4472;52.092;9.820;2023-04-10T17:27:04;15.60;77.30
8872;DHT22;4472;52.092;9.820;2023-04-10T17:29:53;15.60;77.20
8872;DHT22;4472;52.092;9.820;2023-04-10T17:32:40;15.50;76.60
8872;DHT22;4472;52.092;9.820;2023-04-10T17:35:28;15.40;77.40
8872;DHT22;4472;52.092;9.820;2023-04-10T17:38:15;15.40;77.90
8872;DHT22;4472;52.092;9.820;2023-04-10T17:41:02;15.30;78.00
8872;DHT22;4472;52.092;9.820;2023-04-10T17:43:49;15.20;78.20
8872;DHT22;4472;52.092;9.820;2023-04-10T17:46:38;15.20;78.40
8872;DHT22;4472;52.092;9.820;2023-04-10T17:49:25;15.10;78.50
8872;DHT22;4472;52.092;9.820;2023-04-10T17:52:12;15.10;78.00
8872;DHT22;4472;52.092;9.820;2023-04-10T17:54:59;15.10;78.50
8872;DHT22;4472;52.092;9.820;2023-04-10T17:57:47;15.10;77.70
8872;DHT22;4472;52.092;9.820;2023-04-10T18:00:34;15.10;79.00
8872;DHT22;4472;52.092;9.820;2023-04-10T18:03:22;15.10;78.10
8872;DHT22;4472;52.092;9.820;2023-04-10T18:06:10;15.10;78.70
8872;DHT22;4472;52.092;9.820;2023-04-10T18:08:57;15.00;79.10
8872;DHT22;4472;52.092;9.820;2023-04-10T18:11:44;14.90;78.30
8872;DHT22;4472;52.092;9.820;2023-04-10T18:14:32;14.90;78.30
8872;DHT22;4472;52.092;9.820;2023-04-10T18:17:21;14.90;78.20
8872;DHT22;4472;52.092;9.820;2023-04-10T18:20:10;14.90;77.70
8872;DHT22;4472;52.092;9.820;2023-04-10T18:22:57;14.90;77.10
8872;DHT22;4472;52.092;9.820;2023-04-10T18:25:51;14.90;77.20
8872;DHT22;4472;52.092;9.820;2023-04-10T18:28:38;14.90;76.10
8872;DHT22;4472;52.092;9.820;2023-04-10T18:31:27;14.90;76.10
8872;DHT22;4472;52.092;9.820;2023-04-10T18:34:14;14.90;75.90
8872;DHT22;4472;52.092;9.820;2023-04-10T18:37:02;14.90;75.70
8872;DHT22;4472;52.092;9.820;2023-04-10T18:39:49;14.90;76.80
8872;DHT22;4472;52.092;9.820;2023-04-10T18:42:36;14.90;76.30
8872;DHT22;4472;52.092;9.820;2023-04-10T18:45:24;14.90;75.70